Time;durP1;ratioP1;P1;durP2;ratioP2;P2;SDS_P1;SDS_P2;PMS_P1;PMS_P2;Temp;Humidity;BMP_temperature;BMP_pressure;BME280_temperature;BME280_humidity;BME280_pressure;Samples;Min_cycle;Max_cycle;Signal;HPM_P1;HPM_P2
2021/10/12 00:01:28;;;;;;;18.20;7.27;;;12.30;79.90;;;;;;5008424;28;20481;-43
2021/10/12 00:03:55;;;;;;;9.20;6.57;;;12.30;80.00;;;;;;5010359;28;20561;-43
2021/10/12 00:06:22;;;;;;;11.50;7.50;;;12.30;80.10;;;;;;5007397;28;21319;-43
2021/10/12 00:08:48;;;;;;;13.30;7.20;;;12.30;80.00;;;;;;5009435;28;20470;-43
2021/10/12 00:11:15;;;;;;;9.40;7.67;;;12.30;80.10;;;;;;5009746;28;20592;-43
2021/10/12 00:13:42;;;;;;;8.87;6.57;;;12.30;80.10;;;;;;5010270;28;20448;-43
2021/10/12 00:16:09;;;;;;;12.43;7.50;;;12.30;80.10;;;;;;5005789;28;20459;-43
2021/10/12 00:18:35;;;;;;;11.63;7.40;;;12.30;80.10;;;;;;5007028;28;20507;-43
2021/10/12 00:21:02;;;;;;;8.70;7.40;;;12.30;80.10;;;;;;5008436;28;20953;-43
2021/10/12 00:23:29;;;;;;;11.73;7.37;;;12.30;80.40;;;;;;5006931;28;20460;-43
2021/10/12 00:25:56;;;;;;;17.20;7.13;;;12.20;80.30;;;;;;5009221;28;20496;-43
2021/10/12 00:28:24;;;;;;;10.27;7.00;;;12.20;80.50;;;;;;5003142;28;20460;-43
2021/10/12 00:30:51;;;;;;;12.27;6.27;;;12.20;80.60;;;;;;4990579;28;20859;-43
2021/10/12 00:33:18;;;;;;;8.70;6.53;;;12.20;80.70;;;;;;4992988;28;20856;-43
2021/10/12 00:35:44;;;;;;;8.97;7.17;;;12.20;80.70;;;;;;5006664;28;20962;-43
2021/10/12 00:38:11;;;;;;;11.80;7.40;;;12.20;80.70;;;;;;5008927;28;20456;-43
2021/10/12 00:40:38;;;;;;;8.93;6.70;;;12.10;80.70;;;;;;5005297;28;20527;-43
2021/10/12 00:43:05;;;;;;;9.73;8.20;;;12.10;80.80;;;;;;5008730;28;21018;-43
2021/10/12 00:45:32;;;;;;;9.40;8.20;;;12.20;80.70;;;;;;5008087;28;20507;-43
2021/10/12 00:48:06;;;;;;;11.10;8.60;;;12.20;80.80;;;;;;5007603;28;20448;-43
2021/10/12 00:50:36;;;;;;;11.80;8.50;;;12.20;80.70;;;;;;5007368;28;20453;-43
2021/10/12 00:53:03;;;;;;;9.07;7.30;;;12.20;80.80;;;;;;5006481;28;20523;-43
2021/10/12 00:55:30;;;;;;;10.00;8.00;;;12.20;80.80;;;;;;5009009;28;20460;-43
2021/10/12 00:57:57;;;;;;;14.70;8.60;;;12.20;80.80;;;;;;5008900;28;20459;-43
2021/10/12 01:00:24;;;;;;;9.87;8.60;;;12.20;80.80;;;;;;5008016;28;20462;-43
2021/10/12 01:02:52;;;;;;;10.87;7.27;;;12.20;80.70;;;;;;5006138;28;21364;-43
2021/10/12 01:05:19;;;;;;;12.50;8.47;;;12.10;80.70;;;;;;5005155;28;20463;-43
2021/10/12 01:07:46;;;;;;;16.63;8.70;;;12.10;80.80;;;;;;5005893;28;20460;-43
2021/10/12 01:10:13;;;;;;;16.67;8.33;;;12.10;80.80;;;;;;5008845;28;20815;-43
2021/10/12 01:12:40;;;;;;;10.83;7.80;;;12.10;80.80;;;;;;5007927;28;21021;-43
2021/10/12 01:15:08;;;;;;;12.00;8.73;;;12.10;80.80;;;;;;5002879;28;20460;-43
2021/10/12 01:17:36;;;;;;;10.27;7.93;;;12.10;80.70;;;;;;5007260;28;20473;-43
2021/10/12 01:20:05;;;;;;;9.63;7.73;;;12.10;80.80;;;;;;5004958;28;20515;-43
2021/10/12 01:22:32;;;;;;;8.97;8.07;;;12.10;80.70;;;;;;5005678;28;20496;-43
2021/10/12 01:24:59;;;;;;;13.17;7.73;;;12.10;80.70;;;;;;5007642;28;20456;-43
2021/10/12 01:27:26;;;;;;;11.87;7.73;;;12.10;80.70;;;;;;5006075;28;20452;-43
2021/10/12 01:29:53;;;;;;;13.97;9.20;;;12.10;80.70;;;;;;5007093;28;20449;-43
2021/10/12 01:32:20;;;;;;;16.37;8.97;;;12.10;80.80;;;;;;5005394;28;20495;-43
2021/10/12 01:34:46;;;;;;;12.03;8.47;;;12.10;80.90;;;;;;5007589;28;20473;-43
2021/10/12 01:37:13;;;;;;;11.40;7.60;;;12.00;81.00;;;;;;5007490;28;20460;-43
2021/10/12 01:39:40;;;;;;;11.50;7.30;;;12.00;81.10;;;;;;5006952;28;20462;-43
2021/10/12 01:42:06;;;;;;;12.33;8.30;;;12.00;81.20;;;;;;5008391;28;20490;-43
2021/10/12 01:44:33;;;;;;;15.60;8.50;;;12.00;81.30;;;;;;5006945;28;20440;-43
2021/10/12 01:47:00;;;;;;;12.27;8.97;;;12.00;81.30;;;;;;4991279;28;20462;-43
2021/10/12 01:49:27;;;;;;;11.50;7.77;;;11.90;81.30;;;;;;5006553;28;20479;-43
2021/10/12 01:51:53;;;;;;;12.70;9.00;;;11.90;81.30;;;;;;5008436;28;20472;-43
2021/10/12 01:54:23;;;;;;;14.53;9.07;;;11.90;81.30;;;;;;5007264;28;20464;-43
2021/10/12 01:56:51;;;;;;;11.60;8.30;;;11.90;81.30;;;;;;5008002;28;20460;-43
2021/10/12 01:59:19;;;;;;;12.83;9.33;;;11.90;81.20;;;;;;5006925;28;21252;-43
2021/10/12 02:01:46;;;;;;;11.40;9.40;;;11.90;81.30;;;;;;5008259;28;20869;-43
2021/10/12 02:04:13;;;;;;;13.47;9.33;;;11.90;81.30;;;;;;5008791;28;20545;-43
2021/10/12 02:06:40;;;;;;;16.10;9.47;;;11.90;81.30;;;;;;5008735;28;20460;-43
2021/10/12 02:09:07;;;;;;;17.70;10.53;;;12.00;81.30;;;;;;5007949;28;20471;-43
2021/10/12 02:11:33;;;;;;;16.50;11.00;;;12.00;81.20;;;;;;5007523;28;20957;-43
2021/10/12 02:14:00;;;;;;;16.40;10.57;;;12.00;81.20;;;;;;5004806;28;20938;-43
2021/10/12 02:16:27;;;;;;;17.13;10.90;;;12.00;81.30;;;;;;5008041;28;20453;-43
2021/10/12 02:18:54;;;;;;;16.17;10.90;;;12.00;81.40;;;;;;4989424;28;20488;-42
2021/10/12 02:21:21;;;;;;;17.20;12.13;;;11.90;81.50;;;;;;5007310;28;20828;-42
2021/10/12 02:23:47;;;;;;;19.93;12.50;;;11.90;81.60;;;;;;5006023;28;20483;-42
2021/10/12 02:26:14;;;;;;;21.93;11.77;;;11.90;81.80;;;;;;5006498;28;20966;-42
2021/10/12 02:28:41;;;;;;;15.27;11.37;;;11.90;81.90;;;;;;5006957;28;20460;-42
2021/10/12 02:31:07;;;;;;;19.13;12.27;;;11.90;81.90;;;;;;5005554;28;20472;-42
2021/10/12 02:33:34;;;;;;;17.30;12.07;;;11.90;82.00;;;;;;5007673;28;20543;-42
2021/10/12 02:36:01;;;;;;;16.10;12.70;;;11.90;82.00;;;;;;5006096;28;20836;-42
2021/10/12 02:38:28;;;;;;;17.47;10.93;;;11.90;82.00;;;;;;5007881;28;20457;-42
2021/10/12 02:40:55;;;;;;;17.77;11.17;;;11.90;82.00;;;;;;5007613;28;20841;-42
2021/10/12 02:43:22;;;;;;;15.97;11.30;;;11.90;82.00;;;;;;5006342;28;20495;-43
2021/10/12 02:45:49;;;;;;;18.90;11.30;;;11.90;82.00;;;;;;5006468;28;20942;-42
2021/10/12 02:48:16;;;;;;;16.93;11.80;;;12.00;81.90;;;;;;5007460;28;20486;-42
2021/10/12 02:50:43;;;;;;;18.77;12.13;;;12.00;81.90;;;;;;5007037;28;20475;-42
2021/10/12 02:53:16;;;;;;;17.50;12.00;;;11.90;81.90;;;;;;5011015;28;20451;-44
2021/10/12 02:55:42;;;;;;;21.37;13.20;;;11.90;82.20;;;;;;5015671;28;20838;-45
2021/10/12 02:58:09;;;;;;;19.57;11.77;;;11.90;82.30;;;;;;5016639;28;20462;-45
2021/10/12 03:00:36;;;;;;;17.80;11.60;;;12.00;82.30;;;;;;5016886;28;20467;-45
2021/10/12 03:03:03;;;;;;;17.13;12.07;;;12.00;82.30;;;;;;5016323;28;20496;-45
2021/10/12 03:05:30;;;;;;;15.83;10.00;;;12.00;82.40;;;;;;5016072;28;21387;-45
2021/10/12 03:07:57;;;;;;;18.23;10.40;;;12.00;82.60;;;;;;5016608;28;20456;-45
2021/10/12 03:10:24;;;;;;;18.10;11.60;;;12.00;82.70;;;;;;5016013;28;20466;-45
2021/10/12 03:12:51;;;;;;;20.70;11.13;;;12.00;82.80;;;;;;5017276;28;20459;-45
2021/10/12 03:15:18;;;;;;;15.70;11.67;;;12.00;83.00;;;;;;5016685;28;20575;-45
2021/10/12 03:17:44;;;;;;;18.53;13.00;;;12.00;83.20;;;;;;5015544;28;20482;-45
2021/10/12 03:20:11;;;;;;;17.87;12.17;;;12.00;83.40;;;;;;5016486;28;20464;-45
2021/10/12 03:22:39;;;;;;;24.13;13.43;;;12.00;83.50;;;;;;5013135;28;20486;-45
2021/10/12 03:25:06;;;;;;;14.37;11.27;;;12.00;83.50;;;;;;5018637;28;20447;-45
2021/10/12 03:27:32;;;;;;;17.00;11.67;;;12.00;83.70;;;;;;5017628;28;20447;-46
2021/10/12 03:29:59;;;;;;;18.57;11.93;;;11.90;83.80;;;;;;5016485;28;20496;-46
2021/10/12 03:32:26;;;;;;;17.03;11.60;;;11.90;84.10;;;;;;5013877;28;20474;-45
2021/10/12 03:34:53;;;;;;;15.90;10.80;;;11.90;84.20;;;;;;5000329;28;20478;-45
2021/10/12 03:37:19;;;;;;;15.03;9.83;;;11.90;84.30;;;;;;5014964;28;20470;-45
2021/10/12 03:39:46;;;;;;;20.80;10.53;;;11.90;84.50;;;;;;5014222;28;20551;-46
2021/10/12 03:42:13;;;;;;;13.33;9.30;;;11.90;84.60;;;;;;5012477;28;20990;-46
2021/10/12 03:44:39;;;;;;;16.50;9.87;;;11.90;84.80;;;;;;5015677;28;20486;-45
2021/10/12 03:47:06;;;;;;;12.20;8.67;;;11.90;84.90;;;;;;5013064;28;21004;-45
2021/10/12 03:49:33;;;;;;;14.40;8.07;;;12.00;84.90;;;;;;5013417;28;21054;-45
2021/10/12 03:52:00;;;;;;;13.50;8.63;;;11.90;84.80;;;;;;4996079;28;20452;-45
2021/10/12 03:54:27;;;;;;;8.67;7.03;;;11.90;85.00;;;;;;5014775;28;20975;-45
2021/10/12 03:56:54;;;;;;;11.27;8.17;;;11.90;85.30;;;;;;5012984;28;20453;-45
2021/10/12 03:59:21;;;;;;;10.40;7.40;;;11.80;85.30;;;;;;5011607;28;20835;-45
2021/10/12 04:01:48;;;;;;;10.20;7.20;;;11.80;85.40;;;;;;4994672;28;20470;-45
2021/10/12 04:04:15;;;;;;;11.33;7.07;;;11.80;85.70;;;;;;5010870;28;20506;-45
2021/10/12 04:06:41;;;;;;;13.27;8.50;;;11.80;85.70;;;;;;5012718;28;20998;-45
2021/10/12 04:09:08;;;;;;;8.40;7.43;;;11.80;85.90;;;;;;5010445;28;20456;-45
2021/10/12 04:11:35;;;;;;;12.10;6.90;;;11.80;86.10;;;;;;5012449;28;20911;-45
2021/10/12 04:14:01;;;;;;;12.80;7.10;;;11.80;86.10;;;;;;5007995;28;20452;-44
2021/10/12 04:16:28;;;;;;;13.63;6.70;;;11.80;86.30;;;;;;5009532;28;20460;-45
2021/10/12 04:18:55;;;;;;;12.83;7.50;;;11.80;86.40;;;;;;5008610;28;20462;-45
2021/10/12 04:21:22;;;;;;;11.20;8.27;;;11.80;86.50;;;;;;5011756;28;20457;-45
2021/10/12 04:23:48;;;;;;;10.83;6.70;;;11.80;86.60;;;;;;5011515;28;20480;-45
2021/10/12 04:26:18;;;;;;;10.00;8.63;;;11.80;86.70;;;;;;5011471;28;20460;-45
2021/10/12 04:28:45;;;;;;;9.93;7.67;;;11.70;86.80;;;;;;5010579;28;21293;-45
2021/10/12 04:31:12;;;;;;;11.20;7.93;;;11.70;86.90;;;;;;5010614;28;20450;-45
2021/10/12 04:33:39;;;;;;;10.43;8.00;;;11.70;86.90;;;;;;5009074;28;20522;-45
2021/10/12 04:36:05;;;;;;;12.90;7.57;;;11.70;87.10;;;;;;5011846;28;20461;-45
2021/10/12 04:38:32;;;;;;;10.93;8.40;;;11.80;86.90;;;;;;5009852;28;20464;-45
2021/10/12 04:40:59;;;;;;;10.80;7.70;;;11.80;86.80;;;;;;5009361;28;20499;-45
2021/10/12 04:43:26;;;;;;;11.37;7.37;;;11.70;86.90;;;;;;5010050;28;20507;-45
2021/10/12 04:45:53;;;;;;;10.23;7.50;;;11.70;86.90;;;;;;5009253;28;20461;-45
2021/10/12 04:48:19;;;;;;;10.40;7.10;;;11.70;87.10;;;;;;5008183;28;20437;-45
2021/10/12 04:50:46;;;;;;;7.87;6.73;;;11.70;87.00;;;;;;5007621;28;20452;-45
2021/10/12 04:53:13;;;;;;;10.97;7.07;;;11.70;87.00;;;;;;5011237;28;20853;-45
2021/10/12 04:55:40;;;;;;;11.97;7.03;;;11.70;86.70;;;;;;5008941;28;20466;-44
2021/10/12 04:58:08;;;;;;;10.33;6.90;;;11.70;86.70;;;;;;4992934;28;20889;-45
2021/10/12 05:00:36;;;;;;;10.20;6.03;;;11.80;86.60;;;;;;5007779;28;20456;-45
2021/10/12 05:03:02;;;;;;;10.20;6.10;;;11.80;86.40;;;;;;5010080;28;21004;-45
2021/10/12 05:05:30;;;;;;;8.97;6.03;;;11.70;86.40;;;;;;5007776;28;20445;-45
2021/10/12 05:07:56;;;;;;;11.87;6.50;;;11.70;86.70;;;;;;5010907;28;20453;-45
2021/10/12 05:10:24;;;;;;;36.13;19.60;;;11.70;86.80;;;;;;5009240;28;20603;-45
2021/10/12 05:12:51;;;;;;;11.77;8.03;;;11.70;86.90;;;;;;5009170;28;20454;-45
2021/10/12 05:15:26;;;;;;;12.23;6.07;;;11.70;86.80;;;;;;5010656;28;20452;-44
2021/10/12 05:17:53;;;;;;;8.00;5.83;;;11.70;86.60;;;;;;5011470;28;20444;-45
2021/10/12 05:20:20;;;;;;;10.07;5.70;;;11.70;86.60;;;;;;5007037;28;20460;-44
2021/10/12 05:22:47;;;;;;;8.67;5.80;;;11.70;86.70;;;;;;5008753;28;20515;-44
2021/10/12 05:25:15;;;;;;;9.53;5.73;;;11.60;86.70;;;;;;5011149;28;20455;-44
2021/10/12 05:27:42;;;;;;;6.57;5.00;;;11.60;86.80;;;;;;5010507;28;20482;-44
2021/10/12 05:30:11;;;;;;;6.40;4.97;;;11.60;87.00;;;;;;5008951;28;20464;-44
2021/10/12 05:32:40;;;;;;;7.97;5.23;;;11.60;86.80;;;;;;5008777;28;20940;-44
2021/10/12 05:35:07;;;;;;;8.80;5.33;;;11.60;87.10;;;;;;5005218;28;20482;-44
2021/10/12 05:37:34;;;;;;;8.37;5.23;;;11.60;87.00;;;;;;4994158;28;20452;-44
2021/10/12 05:40:02;;;;;;;4.73;4.30;;;11.60;87.00;;;;;;5005219;28;20471;-44
2021/10/12 05:42:29;;;;;;;7.83;4.63;;;11.50;87.10;;;;;;5007861;28;20456;-44
2021/10/12 05:44:56;;;;;;;6.40;4.60;;;11.50;87.10;;;;;;5009159;28;20448;-44
2021/10/12 05:47:22;;;;;;;5.60;4.57;;;11.50;87.00;;;;;;4992578;28;20554;-44
2021/10/12 05:49:49;;;;;;;6.17;4.37;;;11.50;86.90;;;;;;5009390;28;20445;-44
2021/10/12 05:52:19;;;;;;;7.37;4.90;;;11.50;87.00;;;;;;5005548;28;20470;-44
2021/10/12 05:57:55;;;;;;;5.60;4.47;;;11.50;87.10;;;;;;4979279;28;20452;-43
2021/10/12 06:00:21;;;;;;;4.67;3.80;;;11.50;87.20;;;;;;5002351;28;20467;-44
2021/10/12 06:02:48;;;;;;;5.30;3.77;;;11.50;87.20;;;;;;4990969;28;20480;-44
2021/10/12 06:05:15;;;;;;;7.60;4.80;;;11.50;86.90;;;;;;4990264;28;20826;-44
2021/10/12 06:07:41;;;;;;;7.30;4.80;;;11.50;87.00;;;;;;5008220;28;20552;-44
2021/10/12 06:10:08;;;;;;;7.87;4.83;;;11.50;87.20;;;;;;5006181;28;20451;-43
2021/10/12 06:12:35;;;;;;;13.20;6.17;;;11.50;87.30;;;;;;5008674;28;20453;-43
2021/10/12 06:15:02;;;;;;;10.47;4.77;;;11.50;87.30;;;;;;5005779;28;20475;-43
2021/10/12 06:17:29;;;;;;;5.13;3.97;;;11.50;87.50;;;;;;5007225;28;20459;-44
2021/10/12 06:19:56;;;;;;;7.37;4.10;;;11.50;87.70;;;;;;5003850;28;20841;-44
2021/10/12 06:22:22;;;;;;;5.77;3.83;;;11.50;87.80;;;;;;5005973;28;20490;-44
2021/10/12 06:24:49;;;;;;;7.03;4.77;;;11.50;87.70;;;;;;5008199;28;20480;-44
2021/10/12 06:27:16;;;;;;;7.53;3.53;;;11.50;87.80;;;;;;5008935;28;20452;-43
2021/10/12 06:29:42;;;;;;;7.73;4.17;;;11.50;88.00;;;;;;4992027;28;20464;-43
2021/10/12 06:32:09;;;;;;;5.63;4.40;;;11.50;88.00;;;;;;5006024;28;20457;-44
2021/10/12 06:34:38;;;;;;;5.33;4.33;;;11.50;88.10;;;;;;5004320;28;20467;-44
2021/10/12 06:37:05;;;;;;;9.10;6.17;;;11.50;88.10;;;;;;5001772;28;20461;-44
2021/10/12 06:39:31;;;;;;;9.70;5.33;;;11.50;88.20;;;;;;5007053;28;20459;-44
2021/10/12 06:42:02;;;;;;;7.90;5.57;;;11.50;88.20;;;;;;4988257;28;20456;-44
2021/10/12 06:44:29;;;;;;;7.53;4.97;;;11.50;88.30;;;;;;5005312;28;20494;-44
2021/10/12 06:46:56;;;;;;;7.63;4.90;;;11.50;88.30;;;;;;4990383;28;20455;-44
2021/10/12 06:49:22;;;;;;;5.97;4.37;;;11.50;88.30;;;;;;5008738;28;20954;-43
2021/10/12 06:51:49;;;;;;;8.90;4.70;;;11.50;88.40;;;;;;4992227;28;20451;-44
2021/10/12 06:54:19;;;;;;;8.83;5.10;;;11.50;88.40;;;;;;5009739;28;20452;-43
2021/10/12 06:56:46;;;;;;;6.20;4.53;;;11.50;88.40;;;;;;5008924;28;20463;-43
2021/10/12 06:59:13;;;;;;;6.07;4.10;;;11.50;88.40;;;;;;5008432;28;21167;-43
2021/10/12 07:01:39;;;;;;;6.33;4.23;;;11.60;88.30;;;;;;5009260;28;21009;-43
2021/10/12 07:04:06;;;;;;;5.03;3.97;;;11.60;88.20;;;;;;5008681;28;22237;-43
2021/10/12 07:06:33;;;;;;;5.87;4.00;;;11.60;88.00;;;;;;5007665;28;20448;-44
2021/10/12 07:08:59;;;;;;;4.43;2.97;;;11.60;88.00;;;;;;5009212;28;20456;-44
2021/10/12 07:11:26;;;;;;;6.33;3.83;;;11.70;87.70;;;;;;5007643;28;20678;-44
2021/10/12 07:13:53;;;;;;;5.50;3.30;;;11.60;87.80;;;;;;5008947;28;20467;-44
2021/10/12 07:16:21;;;;;;;3.80;3.07;;;11.70;87.90;;;;;;4994805;28;20468;-44
2021/10/12 07:18:48;;;;;;;7.60;3.53;;;11.70;87.90;;;;;;5007863;28;20448;-44
2021/10/12 07:21:15;;;;;;;5.13;3.00;;;11.70;88.00;;;;;;5007711;28;20915;-43
2021/10/12 07:23:42;;;;;;;7.43;3.67;;;11.70;87.90;;;;;;5001751;28;20480;-44
2021/10/12 07:26:09;;;;;;;4.07;3.23;;;11.70;87.90;;;;;;4986635;28;20445;-44
2021/10/12 07:28:36;;;;;;;5.77;4.17;;;11.80;87.90;;;;;;5005506;28;20470;-44
2021/10/12 07:31:04;;;;;;;5.07;2.97;;;11.80;87.70;;;;;;5006308;28;20452;-44
2021/10/12 07:33:31;;;;;;;4.27;3.87;;;11.80;87.60;;;;;;5004956;28;20464;-44
2021/10/12 07:35:58;;;;;;;5.57;3.90;;;11.90;87.00;;;;;;5005483;28;20470;-44
2021/10/12 07:38:28;;;;;;;6.10;4.00;;;11.90;86.50;;;;;;5009763;28;20474;-44
2021/10/12 07:40:55;;;;;;;8.13;4.83;;;11.80;86.60;;;;;;5010876;28;20464;-44
2021/10/12 07:43:23;;;;;;;7.00;4.50;;;11.90;86.70;;;;;;5013573;28;20588;-44
2021/10/12 07:45:50;;;;;;;6.23;4.23;;;11.90;86.50;;;;;;5011374;28;20440;-44
2021/10/12 07:48:18;;;;;;;6.47;4.40;;;11.90;86.70;;;;;;5011314;28;21008;-44
2021/10/12 07:50:45;;;;;;;5.80;3.93;;;11.90;86.70;;;;;;5013695;28;20453;-44
2021/10/12 07:53:12;;;;;;;7.27;4.60;;;11.90;86.60;;;;;;5013153;28;20444;-44
2021/10/12 07:56:03;;;;;;;7.40;3.93;;;11.80;86.50;;;;;;4996470;28;20458;-44
2021/10/12 07:58:26;;;;;;;3.33;3.03;;;11.90;86.40;;;;;;5010677;28;20479;-44
2021/10/12 08:00:52;;;;;;;6.97;3.20;;;11.90;85.50;;;;;;4997318;28;20436;-44
2021/10/12 08:03:19;;;;;;;5.33;3.13;;;11.90;85.40;;;;;;5012157;28;20499;-44
2021/10/12 08:05:46;;;;;;;4.37;3.50;;;11.90;85.20;;;;;;5010815;28;20453;-44
2021/10/12 08:08:13;;;;;;;4.40;3.80;;;11.90;85.50;;;;;;5012219;28;20460;-44
2021/10/12 08:10:40;;;;;;;8.27;3.50;;;12.00;85.20;;;;;;5012420;28;20540;-44
2021/10/12 08:13:11;;;;;;;4.67;3.80;;;11.90;85.70;;;;;;4999096;28;20463;-44
2021/10/12 08:15:41;;;;;;;4.33;3.90;;;12.00;85.50;;;;;;5010190;28;20457;-44
2021/10/12 08:18:08;;;;;;;7.30;4.20;;;12.00;85.60;;;;;;5011652;28;20507;-44
2021/10/12 08:20:35;;;;;;;6.80;4.27;;;12.00;86.10;;;;;;5012332;28;20806;-44
2021/10/12 08:23:02;;;;;;;6.03;4.50;;;12.10;85.60;;;;;;5010467;28;20482;-44
2021/10/12 08:25:28;;;;;;;7.07;5.10;;;12.10;85.60;;;;;;5009444;28;20460;-44
2021/10/12 08:27:55;;;;;;;9.03;4.80;;;12.10;85.80;;;;;;5010631;28;20466;-44
2021/10/12 08:30:22;;;;;;;6.90;4.87;;;12.10;85.70;;;;;;5010416;28;20465;-44
2021/10/12 08:32:48;;;;;;;8.43;4.60;;;12.10;85.70;;;;;;5006605;28;20471;-45
2021/10/12 08:35:15;;;;;;;7.17;4.97;;;12.10;85.50;;;;;;4995154;28;20904;-44
2021/10/12 08:37:42;;;;;;;8.60;6.00;;;12.10;85.60;;;;;;5010990;28;20818;-44
2021/10/12 08:40:15;;;;;;;8.70;5.10;;;12.20;85.00;;;;;;5010220;28;20483;-44
2021/10/12 08:42:47;;;;;;;13.53;5.50;;;12.20;85.10;;;;;;4993891;28;20805;-44
2021/10/12 08:45:15;;;;;;;7.90;5.47;;;12.20;85.30;;;;;;4994458;28;20848;-44
2021/10/12 08:47:43;;;;;;;10.10;5.07;;;12.20;85.00;;;;;;4997661;28;20567;-44
2021/10/12 08:50:16;;;;;;;8.00;5.03;;;12.20;85.00;;;;;;4991463;28;20449;-44
2021/10/12 08:52:46;;;;;;;16.67;9.50;;;12.20;85.40;;;;;;5010335;28;20453;-44
2021/10/12 08:55:14;;;;;;;11.23;6.97;;;12.20;85.60;;;;;;5008831;28;20469;-44
2021/10/12 08:57:43;;;;;;;8.30;5.27;;;12.20;85.80;;;;;;5009740;28;20981;-44
2021/10/12 09:00:19;;;;;;;7.97;5.20;;;12.30;85.80;;;;;;5008825;28;20468;-44
2021/10/12 09:02:57;;;;;;;5.30;4.80;;;12.30;85.60;;;;;;5008219;28;20491;-44
2021/10/12 09:05:25;;;;;;;6.07;4.40;;;12.40;85.20;;;;;;5010775;28;20480;-44
2021/10/12 09:07:52;;;;;;;8.33;5.00;;;12.50;85.30;;;;;;5005692;28;20813;-44
2021/10/12 09:10:23;;;;;;;6.50;5.13;;;12.60;85.40;;;;;;5011311;28;20475;-44
2021/10/12 09:12:52;;;;;;;5.93;4.47;;;12.70;85.40;;;;;;5011037;28;20563;-44
2021/10/12 09:15:19;;;;;;;7.53;4.80;;;12.70;85.40;;;;;;5006369;28;20468;-45
2021/10/12 09:17:49;;;;;;;8.63;4.53;;;12.80;83.90;;;;;;5010596;28;20539;-44
2021/10/12 09:20:16;;;;;;;10.10;3.70;;;12.90;83.70;;;;;;5008721;28;20590;-44
2021/10/12 09:23:07;;;;;;;4.10;3.07;;;12.90;83.00;;;;;;5009527;28;20549;-44
2021/10/12 09:25:42;;;;;;;3.37;2.80;;;13.00;81.60;;;;;;5008627;28;20535;-44
2021/10/12 09:28:38;;;;;;;3.50;3.20;;;13.00;81.10;;;;;;5010984;28;20469;-45
2021/10/12 09:31:05;;;;;;;7.87;3.67;;;12.90;80.70;;;;;;4991299;28;20449;-45
2021/10/12 09:33:47;;;;;;;5.63;3.20;;;13.00;80.80;;;;;;5009256;28;20459;-45
2021/10/12 09:36:34;;;;;;;7.10;4.23;;;12.90;80.90;;;;;;5006236;28;20459;-45
2021/10/12 09:39:02;;;;;;;4.43;3.73;;;13.00;82.00;;;;;;5009421;28;20499;-45
2021/10/12 09:41:29;;;;;;;4.27;3.83;;;13.10;80.40;;;;;;5008492;28;20467;-45
2021/10/12 09:44:12;;;;;;;6.33;3.37;;;13.10;80.30;;;;;;5008213;28;20495;-45
2021/10/12 09:46:47;;;;;;;5.00;3.63;;;13.10;80.30;;;;;;5007449;28;20464;-45
2021/10/12 09:49:17;;;;;;;7.30;3.57;;;13.10;80.00;;;;;;5010288;28;20451;-45
2021/10/12 09:51:53;;;;;;;6.10;3.97;;;13.10;80.10;;;;;;5007040;28;20448;-45
2021/10/12 09:54:21;;;;;;;6.57;3.47;;;13.20;79.90;;;;;;5009851;28;20466;-45
2021/10/12 09:56:48;;;;;;;4.63;3.50;;;13.20;80.30;;;;;;5006163;28;20456;-45
2021/10/12 09:59:17;;;;;;;5.23;3.03;;;13.10;80.40;;;;;;5002660;28;20468;-46
2021/10/12 10:01:46;;;;;;;5.97;3.53;;;13.10;80.10;;;;;;5008121;28;20466;-46
2021/10/12 10:04:19;;;;;;;5.30;3.07;;;13.10;80.60;;;;;;5006352;28;20500;-45
2021/10/12 10:06:48;;;;;;;3.77;3.17;;;13.20;79.20;;;;;;5005571;28;20460;-45
2021/10/12 10:09:19;;;;;;;3.00;2.80;;;13.20;79.80;;;;;;5008256;28;20453;-45
2021/10/12 10:11:46;;;;;;;3.67;3.00;;;13.20;80.10;;;;;;5009113;28;20483;-46
2021/10/12 10:14:14;;;;;;;4.30;2.90;;;13.20;79.60;;;;;;5006256;28;20456;-45
2021/10/12 10:16:44;;;;;;;2.93;2.63;;;13.20;79.60;;;;;;5008769;28;20472;-45
2021/10/12 10:19:18;;;;;;;6.80;3.20;;;13.20;79.40;;;;;;5008725;28;20856;-46
2021/10/12 10:21:48;;;;;;;5.27;3.20;;;13.20;79.40;;;;;;5007721;28;20470;-45
2021/10/12 10:24:23;;;;;;;3.20;2.60;;;13.20;78.90;;;;;;5007303;28;21037;-46
2021/10/12 10:26:51;;;;;;;5.00;3.10;;;13.20;79.50;;;;;;5006584;28;20456;-45
2021/10/12 10:29:38;;;;;;;3.20;2.93;;;13.20;80.00;;;;;;5005592;28;20460;-46
2021/10/12 10:32:22;;;;;;;4.57;3.73;;;13.10;79.80;;;;;;5005206;28;20547;-46
2021/10/12 10:35:03;;;;;;;3.47;2.60;;;13.10;79.90;;;;;;5004442;28;20486;-45
2021/10/12 10:37:34;;;;;;;6.63;3.50;;;13.10;79.70;;;;;;5005552;28;20972;-46
2021/10/12 10:40:05;;;;;;;7.60;2.97;;;13.20;79.40;;;;;;5005418;28;20455;-45
2021/10/12 10:42:41;;;;;;;2.80;2.60;;;13.20;79.40;;;;;;5006187;28;20979;-46
2021/10/12 10:45:11;;;;;;;3.40;2.90;;;13.20;79.40;;;;;;5005350;28;20494;-45
2021/10/12 10:47:41;;;;;;;3.80;3.00;;;13.20;79.40;;;;;;5005932;28;20463;-45
2021/10/12 10:50:25;;;;;;;4.77;3.60;;;13.20;78.70;;;;;;5004870;28;20467;-45
2021/10/12 10:52:55;;;;;;;7.27;3.00;;;13.20;78.90;;;;;;5005855;28;20810;-45
2021/10/12 10:55:43;;;;;;;3.10;2.57;;;13.20;79.20;;;;;;5005830;28;20479;-45
2021/10/12 10:58:17;;;;;;;3.87;2.50;;;13.20;79.60;;;;;;5005508;28;20752;-45
2021/10/12 11:00:44;;;;;;;3.20;2.90;;;13.10;79.00;;;;;;5005869;28;20459;-45
2021/10/12 11:03:30;;;;;;;2.70;2.50;;;13.10;79.10;;;;;;4986511;28;20499;-44
2021/10/12 11:06:18;;;;;;;3.80;2.40;;;13.10;79.30;;;;;;5003414;28;21273;-45
2021/10/12 11:08:59;;;;;;;2.00;1.90;;;13.10;79.00;;;;;;5003756;28;20821;-45
2021/10/12 11:11:34;;;;;;;3.57;2.10;;;13.10;78.90;;;;;;5003440;28;20480;-44
2021/10/12 11:14:03;;;;;;;2.30;1.97;;;13.10;78.70;;;;;;5009556;28;20459;-44
2021/10/12 11:16:35;;;;;;;3.20;2.40;;;13.10;78.90;;;;;;5010662;28;20460;-44
2021/10/12 11:19:04;;;;;;;3.83;2.90;;;13.20;79.70;;;;;;4991576;28;20460;-45
2021/10/12 11:21:31;;;;;;;3.60;2.13;;;13.20;79.70;;;;;;5010684;28;20460;-44
2021/10/12 11:24:00;;;;;;;2.73;2.53;;;13.30;79.80;;;;;;5009063;28;20847;-44
2021/10/12 11:26:28;;;;;;;2.70;2.10;;;13.40;78.80;;;;;;5011244;28;20456;-44
2021/10/12 11:29:00;;;;;;;8.67;2.73;;;13.50;78.50;;;;;;5010672;28;20629;-44
2021/10/12 11:31:28;;;;;;;3.53;2.10;;;13.60;78.30;;;;;;5010014;28;20463;-44
2021/10/12 11:34:03;;;;;;;2.60;2.40;;;13.60;78.70;;;;;;5013129;28;20492;-44
2021/10/12 11:36:32;;;;;;;4.03;2.70;;;13.80;78.10;;;;;;5011186;28;20457;-44
2021/10/12 11:39:08;;;;;;;2.63;2.40;;;13.80;77.90;;;;;;5010633;28;20464;-44
2021/10/12 11:41:39;;;;;;;4.40;2.00;;;13.90;77.70;;;;;;5006318;28;20460;-45
2021/10/12 11:44:17;;;;;;;2.80;2.47;;;13.90;77.60;;;;;;5008470;28;20460;-45
2021/10/12 11:46:48;;;;;;;5.60;2.73;;;13.80;77.60;;;;;;5009376;28;20463;-44
2021/10/12 11:49:18;;;;;;;3.30;2.50;;;13.80;77.10;;;;;;5010076;28;20507;-44
2021/10/12 11:51:48;;;;;;;6.60;2.87;;;13.80;77.40;;;;;;5010344;28;20470;-45
2021/10/12 11:54:25;;;;;;;3.90;2.50;;;13.80;77.20;;;;;;5010451;28;20823;-45
2021/10/12 11:56:52;;;;;;;3.20;2.90;;;13.70;77.20;;;;;;4990720;28;20464;-45
2021/10/12 11:59:19;;;;;;;4.10;3.00;;;13.60;77.40;;;;;;5007600;28;20464;-45
2021/10/12 12:01:46;;;;;;;3.00;2.60;;;13.60;77.90;;;;;;5011374;28;20460;-45
2021/10/12 12:04:32;;;;;;;2.77;2.30;;;13.60;77.80;;;;;;5008703;28;21031;-44
2021/10/12 12:07:06;;;;;;;2.50;2.30;;;13.60;78.20;;;;;;5009239;28;20456;-44
2021/10/12 12:09:36;;;;;;;6.10;3.43;;;13.60;78.60;;;;;;5009590;28;20458;-45
2021/10/12 12:12:07;;;;;;;9.47;3.07;;;13.60;78.50;;;;;;5011781;28;20459;-45
2021/10/12 12:14:34;;;;;;;3.03;2.60;;;13.50;78.60;;;;;;5009025;28;20992;-45
2021/10/12 12:17:20;;;;;;;4.30;2.80;;;13.60;78.50;;;;;;5011855;28;20467;-44
2021/10/12 12:19:52;;;;;;;3.30;2.73;;;13.60;77.60;;;;;;5011866;28;20489;-44
2021/10/12 12:22:31;;;;;;;5.27;3.00;;;13.60;77.40;;;;;;5009798;28;20491;-44
2021/10/12 12:25:00;;;;;;;3.97;3.00;;;13.60;78.00;;;;;;4989864;28;20492;-44
2021/10/12 12:27:35;;;;;;;4.10;2.90;;;13.60;78.30;;;;;;5008140;28;20484;-44
2021/10/12 12:30:07;;;;;;;7.63;3.00;;;13.60;78.60;;;;;;5009662;28;20470;-47
2021/10/12 12:32:36;;;;;;;4.47;2.80;;;13.60;78.90;;;;;;5010982;28;21196;-44
2021/10/12 12:35:10;;;;;;;4.33;3.30;;;13.60;79.50;;;;;;5010275;28;20461;-44
2021/10/12 12:37:37;;;;;;;4.90;3.40;;;13.60;79.50;;;;;;5009127;28;20468;-44
2021/10/12 12:40:25;;;;;;;5.17;3.20;;;13.60;80.10;;;;;;4991533;28;20482;-44
2021/10/12 12:42:52;;;;;;;3.70;3.37;;;13.60;80.10;;;;;;5008172;28;20463;-44
2021/10/12 12:45:24;;;;;;;5.07;3.90;;;13.60;79.90;;;;;;5007531;28;21145;-44
2021/10/12 12:47:57;;;;;;;3.23;2.70;;;13.50;80.80;;;;;;4992165;28;20507;-44
2021/10/12 12:50:30;;;;;;;4.40;3.20;;;13.50;80.90;;;;;;5004649;28;20491;-44
2021/10/12 12:52:59;;;;;;;8.60;3.77;;;13.50;81.40;;;;;;4991774;28;20472;-44